createdAt,value
2023-03-08T00:00:21.173Z,0.57
2023-03-08T00:02:47.972Z,0.20
2023-03-08T00:05:15.347Z,0.20
2023-03-08T00:07:41.984Z,0.10
2023-03-08T00:10:09.736Z,0.30
2023-03-08T00:12:36.454Z,0.30
2023-03-08T00:15:06.253Z,0.20
2023-03-08T00:17:37.561Z,0.35
2023-03-08T00:20:08.264Z,0.20
2023-03-08T00:22:39.664Z,0.20
2023-03-08T00:25:08.846Z,0.15
2023-03-08T00:27:38.672Z,0.10
2023-03-08T00:30:08.598Z,0.20
2023-03-08T00:32:35.333Z,0.22
2023-03-08T00:35:04.094Z,0.45
2023-03-08T00:37:33.088Z,0.25
2023-03-08T00:40:00.012Z,0.30
2023-03-08T00:42:27.454Z,0.20
2023-03-08T00:44:57.170Z,0.40
2023-03-08T00:47:26.094Z,0.20
2023-03-08T00:49:52.791Z,0.40
2023-03-08T00:52:19.476Z,0.20
2023-03-08T00:54:46.412Z,0.30
2023-03-08T00:57:13.066Z,0.25
2023-03-08T00:59:39.853Z,0.30
2023-03-08T01:02:07.226Z,0.28
2023-03-08T01:04:34.186Z,0.20
2023-03-08T01:07:01.635Z,0.20
2023-03-08T01:09:33.544Z,0.10
2023-03-08T01:12:03.183Z,0.20
2023-03-08T01:14:30.681Z,0.20
2023-03-08T01:16:57.349Z,0.20
2023-03-08T01:19:24.035Z,0.22
2023-03-08T01:21:50.683Z,0.40
2023-03-08T01:24:17.494Z,0.50
2023-03-08T01:26:46.556Z,0.30
2023-03-08T01:29:13.229Z,0.30
2023-03-08T01:31:39.923Z,0.30
2023-03-08T01:34:06.574Z,0.40
2023-03-08T01:36:33.281Z,0.40
2023-03-08T01:39:01.465Z,0.50
2023-03-08T01:41:30.741Z,0.30
2023-03-08T01:43:57.858Z,0.32
2023-03-08T01:46:29.035Z,0.20
2023-03-08T01:49:18.870Z,0.30
2023-03-08T01:52:11.218Z,0.27
2023-03-08T01:54:47.975Z,0.17
2023-03-08T01:57:17.594Z,0.30
2023-03-08T01:59:46.666Z,0.43
2023-03-08T02:02:13.484Z,0.53
2023-03-08T02:04:41.290Z,0.40
2023-03-08T02:07:11.070Z,0.50
2023-03-08T02:09:37.996Z,0.38
2023-03-08T02:12:11.681Z,0.30
2023-03-08T02:14:39.834Z,0.20
2023-03-08T02:17:06.606Z,0.45
2023-03-08T02:19:38.613Z,0.40
2023-03-08T02:22:12.584Z,0.30
2023-03-08T02:24:46.993Z,0.57
2023-03-08T02:27:28.245Z,0.30
2023-03-08T02:29:54.931Z,0.30
2023-03-08T02:32:21.663Z,0.65
2023-03-08T02:34:48.439Z,0.30
2023-03-08T02:37:15.085Z,0.32
2023-03-08T02:39:41.761Z,0.10
2023-03-08T02:42:08.431Z,0.40
2023-03-08T02:44:38.161Z,0.60
2023-03-08T02:47:05.021Z,0.30
2023-03-08T02:49:31.661Z,0.20
2023-03-08T02:51:58.350Z,0.30
2023-03-08T02:54:30.293Z,0.40
2023-03-08T02:56:56.959Z,0.77
2023-03-08T02:59:24.118Z,0.80
2023-03-08T03:01:50.821Z,0.70
2023-03-08T03:04:17.692Z,0.70
2023-03-08T03:06:44.342Z,0.50
2023-03-08T03:09:11.469Z,0.63
2023-03-08T03:11:40.723Z,0.40
2023-03-08T03:14:11.821Z,0.68
2023-03-08T03:16:38.495Z,0.77
2023-03-08T03:19:05.379Z,0.47
2023-03-08T03:21:32.047Z,0.57
2023-03-08T03:23:58.761Z,0.70
2023-03-08T03:26:25.700Z,0.60
2023-03-08T03:28:55.450Z,1.15
2023-03-08T03:31:23.503Z,1.30
2023-03-08T03:33:50.755Z,1.48
2023-03-08T03:36:20.138Z,1.20
2023-03-08T03:38:47.603Z,0.85
2023-03-08T03:41:22.309Z,1.30
2023-03-08T03:43:51.893Z,0.80
2023-03-08T03:46:20.413Z,1.58
2023-03-08T03:48:47.325Z,1.00
2023-03-08T03:51:16.940Z,1.10
2023-03-08T03:53:43.797Z,0.80
2023-03-08T03:56:16.040Z,1.52
2023-03-08T03:58:43.219Z,1.30
2023-03-08T04:01:11.781Z,1.52
2023-03-08T04:03:38.761Z,1.93
2023-03-08T04:06:16.104Z,1.30
2023-03-08T04:08:46.420Z,1.13
2023-03-08T04:11:15.889Z,1.80
2023-03-08T04:13:43.431Z,0.98
2023-03-08T04:16:14.469Z,1.37
2023-03-08T04:18:41.719Z,1.05
2023-03-08T04:21:08.893Z,1.60
2023-03-08T04:23:38.925Z,0.82
2023-03-08T04:26:06.974Z,1.27
2023-03-08T04:28:34.339Z,1.00
2023-03-08T04:31:16.058Z,1.10
2023-03-08T04:33:43.224Z,1.27
2023-03-08T04:36:13.914Z,1.05
2023-03-08T04:38:41.001Z,1.75
2023-03-08T04:41:12.009Z,1.05
2023-03-08T04:43:40.296Z,1.77
2023-03-08T04:46:08.326Z,1.35
2023-03-08T04:48:35.915Z,1.02
2023-03-08T04:51:04.283Z,1.25
2023-03-08T04:53:31.750Z,2.00
2023-03-08T04:56:02.177Z,1.35
2023-03-08T04:58:30.253Z,1.20
2023-03-08T05:01:00.051Z,1.35
2023-03-08T05:03:29.900Z,1.10
2023-03-08T05:05:56.660Z,1.52
2023-03-08T05:08:23.837Z,1.33
2023-03-08T05:11:01.058Z,1.40
2023-03-08T05:13:30.411Z,0.95
2023-03-08T05:15:57.636Z,0.70
2023-03-08T05:18:24.505Z,1.27
2023-03-08T05:21:01.051Z,1.27
2023-03-08T05:23:28.911Z,1.17
2023-03-08T05:26:02.619Z,1.52
2023-03-08T05:28:32.200Z,1.03
2023-03-08T05:31:11.547Z,1.40
2023-03-08T05:33:42.621Z,1.23
2023-03-08T05:36:10.714Z,1.10
2023-03-08T05:38:37.390Z,1.30
2023-03-08T05:41:06.285Z,1.70
2023-03-08T05:43:34.015Z,1.00
2023-03-08T05:46:03.984Z,1.33
2023-03-08T05:48:33.021Z,1.42
2023-03-08T05:51:04.176Z,1.13
2023-03-08T05:53:30.907Z,1.20
2023-03-08T05:55:57.863Z,1.13
2023-03-08T05:58:24.684Z,1.48
2023-03-08T06:00:51.417Z,1.08
2023-03-08T06:03:18.094Z,1.10
2023-03-08T06:05:46.790Z,0.60
2023-03-08T06:08:13.476Z,1.40
2023-03-08T06:10:40.143Z,1.08
2023-03-08T06:13:06.825Z,1.33
2023-03-08T06:15:33.507Z,1.15
2023-03-08T06:18:00.213Z,0.80
2023-03-08T06:20:28.183Z,1.20
2023-03-08T06:25:35.464Z,0.93
2023-03-08T06:28:02.226Z,0.57
2023-03-08T06:30:28.970Z,1.50
2023-03-08T06:32:55.659Z,0.63
2023-03-08T06:35:28.124Z,1.00
2023-03-08T06:37:54.834Z,1.15
2023-03-08T06:40:23.875Z,0.77
2023-03-08T06:42:50.723Z,0.90
2023-03-08T06:45:20.472Z,1.10
2023-03-08T06:47:47.196Z,1.08
2023-03-08T06:50:16.993Z,2.05
2023-03-08T06:52:43.776Z,1.90
2023-03-08T06:55:11.050Z,1.23
2023-03-08T06:57:37.771Z,1.75
2023-03-08T07:00:05.099Z,1.65
2023-03-08T07:02:33.997Z,1.42
2023-03-08T07:05:00.696Z,1.30
2023-03-08T07:07:27.332Z,1.20
2023-03-08T07:09:54.066Z,0.90
2023-03-08T07:12:24.456Z,1.33
2023-03-08T07:14:56.151Z,0.60
2023-03-08T07:17:23.672Z,0.88
2023-03-08T07:19:50.429Z,0.88
2023-03-08T07:22:17.415Z,2.10
2023-03-08T07:24:49.605Z,1.08
2023-03-08T07:27:16.494Z,1.20
2023-03-08T07:29:43.265Z,2.15
2023-03-08T07:32:10.047Z,1.48
2023-03-08T07:34:39.788Z,0.70
2023-03-08T07:37:10.825Z,1.02
2023-03-08T07:39:37.500Z,1.02
2023-03-08T07:42:04.682Z,1.27
2023-03-08T07:44:31.322Z,1.10
2023-03-08T07:46:58.001Z,1.30
2023-03-08T07:49:24.990Z,1.40
2023-03-08T07:51:53.430Z,1.30
2023-03-08T07:54:21.663Z,1.10
2023-03-08T07:56:49.370Z,1.58
2023-03-08T07:59:16.057Z,1.40
2023-03-08T08:01:42.714Z,1.25
2023-03-08T08:04:09.699Z,1.88
2023-03-08T08:06:36.624Z,1.38
2023-03-08T08:09:03.561Z,0.95
2023-03-08T08:11:30.245Z,0.85
2023-03-08T08:13:56.898Z,1.05
2023-03-08T08:16:23.967Z,1.08
2023-03-08T08:18:52.814Z,0.73
2023-03-08T08:21:19.524Z,1.20
2023-03-08T08:23:46.586Z,1.20
2023-03-08T08:26:22.539Z,1.60
2023-03-08T08:28:52.366Z,1.05
2023-03-08T08:31:22.317Z,0.85
2023-03-08T08:33:55.785Z,0.95
2023-03-08T08:36:39.161Z,0.82
2023-03-08T08:39:05.811Z,0.85
2023-03-08T08:41:32.482Z,0.93
2023-03-08T08:44:00.224Z,0.90
2023-03-08T08:46:28.142Z,0.70
2023-03-08T08:48:56.020Z,1.27
2023-03-08T08:54:06.739Z,1.00
2023-03-08T08:56:34.459Z,0.75
2023-03-08T08:59:02.531Z,1.10
2023-03-08T09:01:32.084Z,1.27
2023-03-08T09:04:02.004Z,0.90
2023-03-08T09:06:29.665Z,1.65
2023-03-08T09:08:58.487Z,1.60
2023-03-08T09:11:26.598Z,1.80
2023-03-08T09:13:53.873Z,0.85
2023-03-08T09:16:25.071Z,1.77
2023-03-08T09:18:52.886Z,1.30
2023-03-08T09:21:20.050Z,1.10
2023-03-08T09:23:46.875Z,1.00
2023-03-08T09:26:14.322Z,2.15
2023-03-08T09:28:41.288Z,1.13
2023-03-08T09:31:12.716Z,0.95
2023-03-08T09:33:51.998Z,1.30
2023-03-08T09:36:22.383Z,1.02
2023-03-08T09:38:53.985Z,1.17
2023-03-08T09:41:34.158Z,1.08
2023-03-08T09:44:22.650Z,1.10
2023-03-08T09:46:55.702Z,1.42
2023-03-08T09:49:30.239Z,1.53
2023-03-08T09:52:15.385Z,1.80
2023-03-08T09:54:42.606Z,1.67
2023-03-08T09:57:29.352Z,1.85
2023-03-08T10:00:00.706Z,2.33
2023-03-08T10:03:01.473Z,0.93
2023-03-08T10:05:34.416Z,1.80
2023-03-08T10:08:16.257Z,1.98
2023-03-08T10:10:55.132Z,1.40
2023-03-08T10:13:41.173Z,1.05
2023-03-08T10:16:29.772Z,1.13
2023-03-08T10:19:17.782Z,1.02
2023-03-08T10:21:45.357Z,1.25
2023-03-08T10:24:28.921Z,1.10
2023-03-08T10:27:10.679Z,0.80
2023-03-08T10:29:37.363Z,0.73
2023-03-08T10:32:05.542Z,1.77
2023-03-08T10:34:34.081Z,1.13
2023-03-08T10:37:04.327Z,0.68
2023-03-08T10:39:31.012Z,1.40
2023-03-08T10:42:06.620Z,1.58
2023-03-08T10:44:40.400Z,1.60
2023-03-08T10:47:24.330Z,1.17
2023-03-08T10:50:10.367Z,1.35
2023-03-08T10:52:37.159Z,1.38
2023-03-08T10:55:10.445Z,1.73
2023-03-08T10:57:38.245Z,1.43
2023-03-08T11:00:35.376Z,1.23
2023-03-08T11:03:23.299Z,1.15
2023-03-08T11:06:00.568Z,1.70
2023-03-08T11:08:41.497Z,0.90
2023-03-08T11:11:10.008Z,1.33
2023-03-08T11:13:41.867Z,1.20
2023-03-08T11:16:40.041Z,1.83
2023-03-08T11:19:28.480Z,1.58
2023-03-08T11:22:21.844Z,1.03
2023-03-08T11:25:11.067Z,1.02
2023-03-08T11:27:46.809Z,1.23
2023-03-08T11:30:31.001Z,0.95
2023-03-08T11:33:19.401Z,1.50
2023-03-08T11:36:06.220Z,0.65
2023-03-08T11:38:35.022Z,1.50
2023-03-08T11:41:23.669Z,0.70
2023-03-08T11:44:08.462Z,1.10
2023-03-08T11:47:16.639Z,0.77
2023-03-08T11:50:07.771Z,1.17
2023-03-08T11:52:59.152Z,1.60
2023-03-08T11:56:01.365Z,1.20
2023-03-08T11:58:41.725Z,0.88
2023-03-08T12:01:32.716Z,1.33
2023-03-08T12:04:07.929Z,1.27
2023-03-08T12:06:43.778Z,1.23
2023-03-08T12:09:27.262Z,1.20
2023-03-08T12:12:22.822Z,1.10
2023-03-08T12:15:03.481Z,1.88
2023-03-08T12:17:40.027Z,1.58
2023-03-08T12:20:20.103Z,1.27
2023-03-08T12:23:28.603Z,1.10
2023-03-08T12:26:06.559Z,1.00
2023-03-08T12:28:41.575Z,1.08
2023-03-08T12:31:27.795Z,1.30
2023-03-08T12:33:57.178Z,1.83
2023-03-08T12:36:38.600Z,1.52
2023-03-08T12:39:08.718Z,1.70
2023-03-08T12:41:35.673Z,1.00
2023-03-08T12:44:25.848Z,1.30
2023-03-08T12:47:04.068Z,1.58
2023-03-08T12:49:37.689Z,1.70
2023-03-08T12:52:20.184Z,1.42
2023-03-08T12:55:05.351Z,2.10
2023-03-08T12:57:36.383Z,1.55
2023-03-08T13:00:10.467Z,1.20
2023-03-08T13:02:37.162Z,1.02
2023-03-08T13:05:23.236Z,1.40
2023-03-08T13:08:14.631Z,0.80
2023-03-08T13:10:53.275Z,2.08
2023-03-08T13:14:06.009Z,0.98
2023-03-08T13:16:36.605Z,1.23
2023-03-08T13:19:15.449Z,1.13
2023-03-08T13:22:12.775Z,0.75
2023-03-08T13:24:58.237Z,1.63
2023-03-08T13:27:42.936Z,1.33
2023-03-08T13:30:23.679Z,1.10
2023-03-08T13:32:50.544Z,1.40
2023-03-08T13:35:17.962Z,1.88
2023-03-08T13:37:56.813Z,1.42
2023-03-08T13:40:24.073Z,1.67
2023-03-08T13:43:02.820Z,1.73
2023-03-08T13:45:32.816Z,1.60
2023-03-08T13:48:07.206Z,1.15
2023-03-08T13:50:46.358Z,2.03
2023-03-08T13:53:33.435Z,1.48
2023-03-08T13:56:03.261Z,1.33
2023-03-08T13:58:50.586Z,1.70
2023-03-08T14:01:24.773Z,1.27
2023-03-08T14:03:54.982Z,1.25
2023-03-08T14:06:33.898Z,1.55
2023-03-08T14:09:03.210Z,0.98
2023-03-08T14:11:38.028Z,1.40
2023-03-08T14:14:10.447Z,1.77
2023-03-08T14:16:41.927Z,1.48
2023-03-08T14:19:14.729Z,1.50
2023-03-08T14:21:54.326Z,1.63
2023-03-08T14:24:25.308Z,1.67
2023-03-08T14:27:04.182Z,1.60
2023-03-08T14:29:33.366Z,1.60
2023-03-08T14:32:15.396Z,1.65
2023-03-08T14:34:49.593Z,1.80
2023-03-08T14:37:29.867Z,1.63
2023-03-08T14:40:31.873Z,2.35
2023-03-08T14:43:02.577Z,2.15
2023-03-08T14:45:42.407Z,1.20
2023-03-08T14:48:18.421Z,1.77
2023-03-08T14:51:01.679Z,2.83
2023-03-08T14:53:41.576Z,2.28
2023-03-08T14:56:16.106Z,1.40
2023-03-08T14:58:49.310Z,2.17
2023-03-08T15:01:25.741Z,1.95
2023-03-08T15:03:52.497Z,1.60
2023-03-08T15:06:28.651Z,2.22
2023-03-08T15:08:58.594Z,1.35
2023-03-08T15:11:26.946Z,1.95
2023-03-08T15:13:53.678Z,2.10
2023-03-08T15:16:20.596Z,2.50
2023-03-08T15:18:47.366Z,2.05
2023-03-08T15:21:18.317Z,1.92
2023-03-08T15:23:45.237Z,2.15
2023-03-08T15:26:20.826Z,1.80
2023-03-08T15:28:47.658Z,1.73
2023-03-08T15:31:14.437Z,1.95
2023-03-08T15:33:41.103Z,2.25
2023-03-08T15:36:14.696Z,1.83
2023-03-08T15:38:41.429Z,1.30
2023-03-08T15:41:11.836Z,1.73
2023-03-08T15:43:41.408Z,2.03
2023-03-08T15:46:14.801Z,1.80
2023-03-08T15:48:42.190Z,2.08
2023-03-08T15:51:19.428Z,2.15
2023-03-08T15:53:46.957Z,2.00
2023-03-08T15:56:13.710Z,3.10
2023-03-08T15:58:40.775Z,1.60
2023-03-08T16:01:10.002Z,1.98
2023-03-08T16:03:36.658Z,2.67
2023-03-08T16:06:08.333Z,2.13
2023-03-08T16:08:36.520Z,1.63
2023-03-08T16:11:07.453Z,1.58
2023-03-08T16:13:37.392Z,1.95
2023-03-08T16:16:05.470Z,1.33
2023-03-08T16:18:33.341Z,2.00
2023-03-08T16:21:00.520Z,2.15
2023-03-08T16:23:27.318Z,1.65
2023-03-08T16:26:14.122Z,1.90
2023-03-08T16:28:43.716Z,2.45
2023-03-08T16:31:10.561Z,2.57
2023-03-08T16:33:39.962Z,2.53
2023-03-08T16:36:07.128Z,2.25
2023-03-08T16:38:33.917Z,2.45
2023-03-08T16:41:12.306Z,2.88
2023-03-08T16:43:46.240Z,2.65
2023-03-08T16:46:15.574Z,2.00
2023-03-08T16:48:42.295Z,2.55
2023-03-08T16:51:13.943Z,2.65
2023-03-08T16:53:44.003Z,2.03
2023-03-08T16:56:20.033Z,3.13
2023-03-08T16:58:49.376Z,2.67
2023-03-08T17:01:17.853Z,2.33
2023-03-08T17:03:44.730Z,3.13
2023-03-08T17:06:13.335Z,2.40
2023-03-08T17:08:40.084Z,3.35
2023-03-08T17:11:17.771Z,2.67
2023-03-08T17:13:50.806Z,2.70
2023-03-08T17:16:26.371Z,2.42
2023-03-08T17:18:57.731Z,2.25
2023-03-08T17:21:24.768Z,2.72
2023-03-08T17:23:52.807Z,2.40
2023-03-08T17:26:22.077Z,2.20
2023-03-08T17:28:53.457Z,2.60
2023-03-08T17:31:22.154Z,2.35
2023-03-08T17:33:49.299Z,2.07
2023-03-08T17:36:16.612Z,2.22
2023-03-08T17:38:46.275Z,2.25
2023-03-08T17:41:16.693Z,2.15
2023-03-08T17:43:43.318Z,2.20
2023-03-08T17:46:15.506Z,2.63
2023-03-08T17:48:42.788Z,1.90
2023-03-08T17:51:14.938Z,1.55
2023-03-08T17:53:45.345Z,2.35
2023-03-08T17:56:15.118Z,1.50
2023-03-08T17:58:42.539Z,1.80
2023-03-08T18:01:22.937Z,1.50
2023-03-08T18:03:50.766Z,1.40
2023-03-08T18:06:38.483Z,1.77
2023-03-08T18:09:08.485Z,1.90
2023-03-08T18:11:37.528Z,2.20
2023-03-08T18:14:06.542Z,1.40
2023-03-08T18:16:34.227Z,2.20
2023-03-08T18:19:02.364Z,3.10
2023-03-08T18:21:33.474Z,1.63
2023-03-08T18:24:00.614Z,2.63
2023-03-08T18:26:28.069Z,1.95
2023-03-08T18:28:54.809Z,1.48
2023-03-08T18:31:25.953Z,1.37
2023-03-08T18:33:56.397Z,1.73
2023-03-08T18:36:23.850Z,1.10
2023-03-08T18:38:50.805Z,1.17
2023-03-08T18:41:22.788Z,0.95
2023-03-08T18:43:51.301Z,1.92
2023-03-08T18:46:18.604Z,1.98
2023-03-08T18:49:01.072Z,2.25
2023-03-08T18:51:32.072Z,1.17
2023-03-08T18:53:59.752Z,1.52
2023-03-08T18:56:30.796Z,2.15
2023-03-08T18:59:00.465Z,1.70
2023-03-08T19:01:28.602Z,1.90
2023-03-08T19:03:55.405Z,2.22
2023-03-08T19:06:22.193Z,1.27
2023-03-08T19:08:48.855Z,1.37
2023-03-08T19:11:20.766Z,1.55
2023-03-08T19:13:48.500Z,1.45
2023-03-08T19:16:21.948Z,1.00
2023-03-08T19:18:51.013Z,1.60
2023-03-08T19:21:20.616Z,1.57
2023-03-08T19:23:47.976Z,1.17
2023-03-08T19:26:37.138Z,1.63
2023-03-08T19:29:03.914Z,1.45
2023-03-08T19:31:32.001Z,1.60
2023-03-08T19:34:01.280Z,1.55
2023-03-08T19:36:28.002Z,1.88
2023-03-08T19:39:00.735Z,0.93
2023-03-08T19:41:27.638Z,1.45
2023-03-08T19:43:54.395Z,1.23
2023-03-08T19:46:21.141Z,1.58
2023-03-08T19:48:48.504Z,1.38
2023-03-08T19:51:17.540Z,1.13
2023-03-08T19:53:44.749Z,1.70
2023-03-08T19:56:18.550Z,1.25
2023-03-08T19:58:46.471Z,1.53
2023-03-08T20:01:15.792Z,1.60
2023-03-08T20:03:42.996Z,1.73
2023-03-08T20:06:10.310Z,2.17
2023-03-08T20:08:38.244Z,1.65
2023-03-08T20:11:05.234Z,1.88
2023-03-08T20:13:32.101Z,1.05
2023-03-08T20:15:58.914Z,1.42
2023-03-08T20:18:29.129Z,1.35
2023-03-08T20:20:58.881Z,1.38
2023-03-08T20:23:25.954Z,1.58
2023-03-08T20:25:53.189Z,1.38
2023-03-08T20:28:21.297Z,1.10
2023-03-08T20:30:48.467Z,1.40
2023-03-08T20:33:15.657Z,1.20
2023-03-08T20:35:42.948Z,1.10
2023-03-08T20:38:09.963Z,0.77
2023-03-08T20:40:39.237Z,1.25
2023-03-08T20:43:11.019Z,1.00
2023-03-08T20:45:39.611Z,0.80
2023-03-08T20:48:06.395Z,0.95
2023-03-08T20:50:33.179Z,0.95
2023-03-08T20:52:59.903Z,0.55
2023-03-08T20:55:26.616Z,0.75
2023-03-08T20:57:56.151Z,0.90
2023-03-08T21:00:25.484Z,0.60
2023-03-08T21:02:55.151Z,0.60
2023-03-08T21:05:21.877Z,0.70
2023-03-08T21:07:51.637Z,1.08
2023-03-08T21:10:18.645Z,0.73
2023-03-08T21:12:45.316Z,0.95
2023-03-08T21:15:12.343Z,0.20
2023-03-08T21:17:40.163Z,0.50
2023-03-08T21:20:13.890Z,0.40
2023-03-08T21:22:40.739Z,0.65
2023-03-08T21:25:07.690Z,0.22
2023-03-08T21:27:34.904Z,0.28
2023-03-08T21:30:02.094Z,0.30
2023-03-08T21:32:29.401Z,0.52
2023-03-08T21:34:56.529Z,0.10
2023-03-08T21:37:23.892Z,0.20
2023-03-08T21:39:50.988Z,0.40
2023-03-08T21:42:21.856Z,0.22
2023-03-08T21:44:49.058Z,0.40
2023-03-08T21:47:18.549Z,0.20
2023-03-08T21:49:45.685Z,0.35
2023-03-08T21:52:12.835Z,0.30
2023-03-08T21:54:39.981Z,0.40
2023-03-08T21:57:07.050Z,0.40
2023-03-08T21:59:34.272Z,0.30
2023-03-08T22:02:03.480Z,0.35
2023-03-08T22:04:30.913Z,0.20
2023-03-08T22:07:00.731Z,0.30
2023-03-08T22:09:29.122Z,0.20
2023-03-08T22:11:58.367Z,0.47
2023-03-08T22:14:25.591Z,0.30
2023-03-08T22:16:54.652Z,0.30
2023-03-08T22:19:21.795Z,0.10
2023-03-08T22:21:54.137Z,0.20
2023-03-08T22:24:21.222Z,0.10
2023-03-08T22:26:50.342Z,0.20
2023-03-08T22:29:17.467Z,0.77
2023-03-08T22:31:44.224Z,0.28
2023-03-08T22:34:10.951Z,0.35
2023-03-08T22:36:38.065Z,0.20
2023-03-08T22:39:05.248Z,0.32
2023-03-08T22:41:32.377Z,0.20
2023-03-08T22:44:04.161Z,0.30
2023-03-08T22:46:31.452Z,0.20
2023-03-08T22:49:04.649Z,0.50
2023-03-08T22:51:31.885Z,0.22
2023-03-08T22:54:03.824Z,0.25
2023-03-08T22:56:31.424Z,0.10
2023-03-08T22:58:58.753Z,0.50
2023-03-08T23:01:26.621Z,0.30
2023-03-08T23:03:55.080Z,0.20
2023-03-08T23:06:22.258Z,0.20
2023-03-08T23:08:49.665Z,0.43
2023-03-08T23:11:17.056Z,0.30
2023-03-08T23:13:44.223Z,0.30
2023-03-08T23:16:17.897Z,0.53
2023-03-08T23:18:45.469Z,0.47
2023-03-08T23:21:16.463Z,0.32
2023-03-08T23:23:43.624Z,0.50
2023-03-08T23:26:13.991Z,0.38
2023-03-08T23:28:41.267Z,0.60
2023-03-08T23:31:09.913Z,0.30
2023-03-08T23:33:40.583Z,0.60
2023-03-08T23:36:11.123Z,0.55
2023-03-08T23:38:38.441Z,0.20
2023-03-08T23:41:08.636Z,0.65
2023-03-08T23:43:36.308Z,0.20
2023-03-08T23:46:11.080Z,0.35
2023-03-08T23:48:38.215Z,0.55
2023-03-08T23:51:10.514Z,0.30
2023-03-08T23:53:37.649Z,0.70
2023-03-08T23:56:05.502Z,0.20
2023-03-08T23:58:32.716Z,0.57
